sensor_id;sensor_type;location;lat;lon;timestamp;pressure;altitude;pressure_sealevel;temperature;humidity
50632;BME280;49583;45.590;-122.498;2023-06-14T00:00:25;101280.67;;;26.59;37.78
50632;BME280;49583;45.590;-122.498;2023-06-14T00:03:12;101280.65;;;26.48;37.52
50632;BME280;49583;45.590;-122.498;2023-06-14T00:05:52;101278.10;;;26.42;37.65
50632;BME280;49583;45.590;-122.498;2023-06-14T00:08:16;101275.59;;;26.41;37.66
50632;BME280;49583;45.590;-122.498;2023-06-14T00:10:49;101272.72;;;26.41;37.18
50632;BME280;49583;45.590;-122.498;2023-06-14T00:13:05;101273.66;;;26.34;37.04
50632;BME280;49583;45.590;-122.498;2023-06-14T00:15:19;101272.06;;;26.27;36.86
50632;BME280;49583;45.590;-122.498;2023-06-14T00:17:41;101265.50;;;26.19;37.01
50632;BME280;49583;45.590;-122.498;2023-06-14T00:19:55;101264.29;;;26.10;36.61
50632;BME280;49583;45.590;-122.498;2023-06-14T00:22:18;101270.70;;;26.00;36.41
50632;BME280;49583;45.590;-122.498;2023-06-14T00:24:41;101272.86;;;25.96;36.73
50632;BME280;49583;45.590;-122.498;2023-06-14T00:26:54;101272.30;;;25.98;37.04
50632;BME280;49583;45.590;-122.498;2023-06-14T00:29:10;101269.80;;;25.99;37.11
50632;BME280;49583;45.590;-122.498;2023-06-14T00:31:34;101271.52;;;25.97;37.16
50632;BME280;49583;45.590;-122.498;2023-06-14T00:33:50;101270.52;;;25.93;37.28
50632;BME280;49583;45.590;-122.498;2023-06-14T00:36:23;101271.84;;;25.88;37.63
50632;BME280;49583;45.590;-122.498;2023-06-14T00:38:36;101269.28;;;25.83;37.79
50632;BME280;49583;45.590;-122.498;2023-06-14T00:40:52;101270.61;;;25.81;38.25
50632;BME280;49583;45.590;-122.498;2023-06-14T00:43:11;101264.41;;;25.79;38.33
50632;BME280;49583;45.590;-122.498;2023-06-14T00:45:27;101274.19;;;25.77;38.53
50632;BME280;49583;45.590;-122.498;2023-06-14T00:48:03;101263.60;;;25.78;37.94
50632;BME280;49583;45.590;-122.498;2023-06-14T00:50:17;101268.82;;;25.75;37.27
50632;BME280;49583;45.590;-122.498;2023-06-14T00:52:30;101266.87;;;25.70;36.82
50632;BME280;49583;45.590;-122.498;2023-06-14T00:54:54;101264.14;;;25.60;36.21
50632;BME280;49583;45.590;-122.498;2023-06-14T00:57:08;101258.66;;;25.50;35.94
50632;BME280;49583;45.590;-122.498;2023-06-14T00:59:22;101258.71;;;25.46;35.89
50632;BME280;49583;45.590;-122.498;2023-06-14T01:01:46;101254.15;;;25.41;35.36
50632;BME280;49583;45.590;-122.498;2023-06-14T01:04:10;101253.35;;;25.30;35.50
50632;BME280;49583;45.590;-122.498;2023-06-14T01:06:49;101246.06;;;25.24;35.58
50632;BME280;49583;45.590;-122.498;2023-06-14T01:09:32;101242.48;;;25.18;35.87
50632;BME280;49583;45.590;-122.498;2023-06-14T01:11:57;101239.02;;;25.14;35.84
50632;BME280;49583;45.590;-122.498;2023-06-14T01:14:20;101241.48;;;25.07;35.89
50632;BME280;49583;45.590;-122.498;2023-06-14T01:16:35;101239.92;;;25.01;36.05
50632;BME280;49583;45.590;-122.498;2023-06-14T01:18:50;101239.02;;;24.95;36.17
50632;BME280;49583;45.590;-122.498;2023-06-14T01:21:24;101238.21;;;24.89;36.37
50632;BME280;49583;45.590;-122.498;2023-06-14T01:23:52;101247.81;;;24.80;36.55
50632;BME280;49583;45.590;-122.498;2023-06-14T01:26:08;101249.44;;;24.74;36.68
50632;BME280;49583;45.590;-122.498;2023-06-14T01:28:31;101250.51;;;24.67;36.81
50632;BME280;49583;45.590;-122.498;2023-06-14T01:30:49;101254.80;;;24.60;36.89
50632;BME280;49583;45.590;-122.498;2023-06-14T01:33:17;101259.06;;;24.53;36.88
50632;BME280;49583;45.590;-122.498;2023-06-14T01:35:53;101254.09;;;24.47;36.93
50632;BME280;49583;45.590;-122.498;2023-06-14T01:38:27;101251.20;;;24.38;37.44
50632;BME280;49583;45.590;-122.498;2023-06-14T01:40:45;101250.63;;;24.34;37.65
50632;BME280;49583;45.590;-122.498;2023-06-14T01:43:01;101256.04;;;24.25;37.79
50632;BME280;49583;45.590;-122.498;2023-06-14T01:45:19;101252.67;;;24.18;37.82
50632;BME280;49583;45.590;-122.498;2023-06-14T01:47:35;101249.15;;;24.12;37.92
50632;BME280;49583;45.590;-122.498;2023-06-14T01:50:12;101251.08;;;24.06;38.22
50632;BME280;49583;45.590;-122.498;2023-06-14T01:52:36;101243.67;;;23.98;38.37
50632;BME280;49583;45.590;-122.498;2023-06-14T01:54:52;101240.60;;;23.90;38.48
50632;BME280;49583;45.590;-122.498;2023-06-14T01:57:27;101236.45;;;23.83;38.55
50632;BME280;49583;45.590;-122.498;2023-06-14T01:59:45;101242.75;;;23.74;38.74
50632;BME280;49583;45.590;-122.498;2023-06-14T02:02:19;101244.00;;;23.65;38.88
50632;BME280;49583;45.590;-122.498;2023-06-14T02:04:51;101245.87;;;23.56;39.17
50632;BME280;49583;45.590;-122.498;2023-06-14T02:07:12;101245.69;;;23.51;39.34
50632;BME280;49583;45.590;-122.498;2023-06-14T02:09:27;101246.73;;;23.42;39.40
50632;BME280;49583;45.590;-122.498;2023-06-14T02:11:50;101243.63;;;23.31;39.78
50632;BME280;49583;45.590;-122.498;2023-06-14T02:14:15;101253.39;;;23.27;39.89
50632;BME280;49583;45.590;-122.498;2023-06-14T02:16:33;101253.14;;;23.16;39.94
50632;BME280;49583;45.590;-122.498;2023-06-14T02:18:48;101258.28;;;23.03;40.32
50632;BME280;49583;45.590;-122.498;2023-06-14T02:21:12;101264.75;;;22.94;40.48
50632;BME280;49583;45.590;-122.498;2023-06-14T02:23:36;101268.66;;;22.87;40.52
50632;BME280;49583;45.590;-122.498;2023-06-14T02:25:50;101274.20;;;22.77;40.55
50632;BME280;49583;45.590;-122.498;2023-06-14T02:28:16;101281.58;;;22.69;40.82
50632;BME280;49583;45.590;-122.498;2023-06-14T02:30:29;101282.66;;;22.62;40.73
50632;BME280;49583;45.590;-122.498;2023-06-14T02:32:55;101283.27;;;22.51;40.90
50632;BME280;49583;45.590;-122.498;2023-06-14T02:35:29;101289.24;;;22.43;41.01
50632;BME280;49583;45.590;-122.498;2023-06-14T02:38:03;101285.30;;;22.32;40.95
50632;BME280;49583;45.590;-122.498;2023-06-14T02:40:46;101287.95;;;22.20;41.27
50632;BME280;49583;45.590;-122.498;2023-06-14T02:43:03;101291.61;;;22.11;41.34
50632;BME280;49583;45.590;-122.498;2023-06-14T02:45:36;101297.09;;;21.98;41.43
50632;BME280;49583;45.590;-122.498;2023-06-14T02:48:10;101299.07;;;21.86;41.74
50632;BME280;49583;45.590;-122.498;2023-06-14T02:50:24;101292.48;;;21.74;41.98
50632;BME280;49583;45.590;-122.498;2023-06-14T02:52:48;101295.14;;;21.62;42.24
50632;BME280;49583;45.590;-122.498;2023-06-14T02:55:08;101298.60;;;21.53;42.38
50632;BME280;49583;45.590;-122.498;2023-06-14T02:57:32;101306.13;;;21.44;42.39
50632;BME280;49583;45.590;-122.498;2023-06-14T02:59:49;101305.02;;;21.36;42.50
50632;BME280;49583;45.590;-122.498;2023-06-14T03:02:02;101306.08;;;21.29;42.72
50632;BME280;49583;45.590;-122.498;2023-06-14T03:04:35;101314.54;;;21.21;42.86
50632;BME280;49583;45.590;-122.498;2023-06-14T03:07:09;101311.51;;;21.13;42.93
50632;BME280;49583;45.590;-122.498;2023-06-14T03:09:34;101306.06;;;21.01;43.00
50632;BME280;49583;45.590;-122.498;2023-06-14T03:11:48;101306.23;;;20.94;42.98
50632;BME280;49583;45.590;-122.498;2023-06-14T03:14:06;101306.32;;;20.87;42.99
50632;BME280;49583;45.590;-122.498;2023-06-14T03:16:40;101310.85;;;20.80;43.17
50632;BME280;49583;45.590;-122.498;2023-06-14T03:19:13;101311.06;;;20.74;43.23
50632;BME280;49583;45.590;-122.498;2023-06-14T03:21:47;101314.23;;;20.67;43.29
50632;BME280;49583;45.590;-122.498;2023-06-14T03:24:10;101311.73;;;20.62;43.35
50632;BME280;49583;45.590;-122.498;2023-06-14T03:26:44;101312.37;;;20.55;43.42
50632;BME280;49583;45.590;-122.498;2023-06-14T03:29:07;101312.67;;;20.47;43.63
50632;BME280;49583;45.590;-122.498;2023-06-14T03:31:24;101309.89;;;20.41;43.75
50632;BME280;49583;45.590;-122.498;2023-06-14T03:33:51;101316.61;;;20.34;43.81
50632;BME280;49583;45.590;-122.498;2023-06-14T03:36:09;101321.48;;;20.26;43.90
50632;BME280;49583;45.590;-122.498;2023-06-14T03:38:32;101328.24;;;20.18;43.91
50632;BME280;49583;45.590;-122.498;2023-06-14T03:40:54;101332.91;;;20.09;44.09
50632;BME280;49583;45.590;-122.498;2023-06-14T03:43:24;101330.17;;;20.02;44.20
50632;BME280;49583;45.590;-122.498;2023-06-14T03:45:47;101333.75;;;19.93;44.30
50632;BME280;49583;45.590;-122.498;2023-06-14T03:48:04;101339.73;;;19.87;44.33
50632;BME280;49583;45.590;-122.498;2023-06-14T03:50:30;101343.67;;;19.81;44.33
50632;BME280;49583;45.590;-122.498;2023-06-14T03:52:58;101349.42;;;19.73;44.53
50632;BME280;49583;45.590;-122.498;2023-06-14T03:55:31;101348.59;;;19.67;44.60
50632;BME280;49583;45.590;-122.498;2023-06-14T03:58:25;101347.97;;;19.61;44.79
50632;BME280;49583;45.590;-122.498;2023-06-14T04:00:58;101343.80;;;19.56;44.87
50632;BME280;49583;45.590;-122.498;2023-06-14T04:03:14;101350.48;;;19.52;45.00
50632;BME280;49583;45.590;-122.498;2023-06-14T04:05:27;101352.48;;;19.45;44.98
50632;BME280;49583;45.590;-122.498;2023-06-14T04:08:02;101356.78;;;19.37;44.84
50632;BME280;49583;45.590;-122.498;2023-06-14T04:10:25;101368.32;;;19.28;44.96
50632;BME280;49583;45.590;-122.498;2023-06-14T04:12:58;101378.02;;;19.19;45.00
50632;BME280;49583;45.590;-122.498;2023-06-14T04:15:12;101382.73;;;19.11;45.01
50632;BME280;49583;45.590;-122.498;2023-06-14T04:17:35;101385.77;;;19.01;45.08
50632;BME280;49583;45.590;-122.498;2023-06-14T04:19:59;101393.71;;;18.93;45.17
50632;BME280;49583;45.590;-122.498;2023-06-14T04:22:22;101398.08;;;18.87;45.16
50632;BME280;49583;45.590;-122.498;2023-06-14T04:24:49;101399.75;;;18.80;45.37
50632;BME280;49583;45.590;-122.498;2023-06-14T04:27:32;101409.74;;;18.71;45.17
50632;BME280;49583;45.590;-122.498;2023-06-14T04:30:09;101416.16;;;18.60;45.31
50632;BME280;49583;45.590;-122.498;2023-06-14T04:32:39;101424.78;;;18.54;45.46
50632;BME280;49583;45.590;-122.498;2023-06-14T04:35:09;101430.46;;;18.46;45.47
50632;BME280;49583;45.590;-122.498;2023-06-14T04:37:43;101435.92;;;18.37;45.54
50632;BME280;49583;45.590;-122.498;2023-06-14T04:40:09;101439.00;;;18.29;45.61
50632;BME280;49583;45.590;-122.498;2023-06-14T04:42:25;101440.50;;;18.24;45.70
50632;BME280;49583;45.590;-122.498;2023-06-14T04:44:54;101437.00;;;18.20;45.78
50632;BME280;49583;45.590;-122.498;2023-06-14T04:47:08;101444.67;;;18.16;45.83
50632;BME280;49583;45.590;-122.498;2023-06-14T04:49:31;101445.21;;;18.12;46.04
50632;BME280;49583;45.590;-122.498;2023-06-14T04:51:46;101451.30;;;18.08;46.14
50632;BME280;49583;45.590;-122.498;2023-06-14T04:54:04;101458.10;;;18.02;46.16
50632;BME280;49583;45.590;-122.498;2023-06-14T04:56:30;101466.86;;;17.95;46.17
50632;BME280;49583;45.590;-122.498;2023-06-14T04:59:01;101469.62;;;17.91;46.41
50632;BME280;49583;45.590;-122.498;2023-06-14T05:01:34;101480.30;;;17.89;46.34
50632;BME280;49583;45.590;-122.498;2023-06-14T05:03:47;101483.66;;;17.82;46.26
50632;BME280;49583;45.590;-122.498;2023-06-14T05:06:01;101483.39;;;17.74;46.42
50632;BME280;49583;45.590;-122.498;2023-06-14T05:08:14;101492.80;;;17.70;46.51
50632;BME280;49583;45.590;-122.498;2023-06-14T05:10:37;101491.58;;;17.65;46.58
50632;BME280;49583;45.590;-122.498;2023-06-14T05:12:50;101497.32;;;17.61;46.77
50632;BME280;49583;45.590;-122.498;2023-06-14T05:15:13;101500.29;;;17.57;46.78
50632;BME280;49583;45.590;-122.498;2023-06-14T05:17:32;101508.57;;;17.54;46.97
50632;BME280;49583;45.590;-122.498;2023-06-14T05:19:56;101511.23;;;17.50;47.00
50632;BME280;49583;45.590;-122.498;2023-06-14T05:22:19;101517.79;;;17.47;47.10
50632;BME280;49583;45.590;-122.498;2023-06-14T05:24:42;101522.70;;;17.47;47.18
50632;BME280;49583;45.590;-122.498;2023-06-14T05:27:05;101523.23;;;17.45;47.15
50632;BME280;49583;45.590;-122.498;2023-06-14T05:29:29;101524.09;;;17.44;47.13
50632;BME280;49583;45.590;-122.498;2023-06-14T05:32:02;101533.18;;;17.43;47.24
50632;BME280;49583;45.590;-122.498;2023-06-14T05:34:26;101530.09;;;17.41;46.99
50632;BME280;49583;45.590;-122.498;2023-06-14T05:36:48;101530.94;;;17.38;47.03
50632;BME280;49583;45.590;-122.498;2023-06-14T05:39:04;101534.55;;;17.35;47.01
50632;BME280;49583;45.590;-122.498;2023-06-14T05:41:17;101533.03;;;17.31;47.02
50632;BME280;49583;45.590;-122.498;2023-06-14T05:43:41;101533.08;;;17.28;46.90
50632;BME280;49583;45.590;-122.498;2023-06-14T05:46:04;101534.40;;;17.24;46.97
50632;BME280;49583;45.590;-122.498;2023-06-14T05:48:17;101535.63;;;17.20;46.93
50632;BME280;49583;45.590;-122.498;2023-06-14T05:50:50;101537.73;;;17.17;46.83
50632;BME280;49583;45.590;-122.498;2023-06-14T05:53:03;101538.24;;;17.10;46.86
50632;BME280;49583;45.590;-122.498;2023-06-14T05:55:35;101535.05;;;16.99;46.78
50632;BME280;49583;45.590;-122.498;2023-06-14T05:57:49;101539.73;;;16.92;46.92
50632;BME280;49583;45.590;-122.498;2023-06-14T06:00:03;101535.50;;;16.86;47.03
50632;BME280;49583;45.590;-122.498;2023-06-14T06:02:21;101537.13;;;16.83;47.19
50632;BME280;49583;45.590;-122.498;2023-06-14T06:04:44;101537.02;;;16.79;47.15
50632;BME280;49583;45.590;-122.498;2023-06-14T06:07:08;101541.30;;;16.74;47.26
50632;BME280;49583;45.590;-122.498;2023-06-14T06:09:21;101541.19;;;16.69;47.24
50632;BME280;49583;45.590;-122.498;2023-06-14T06:11:34;101540.56;;;16.63;47.25
50632;BME280;49583;45.590;-122.498;2023-06-14T06:14:11;101548.77;;;16.57;47.29
50632;BME280;49583;45.590;-122.498;2023-06-14T06:16:35;101549.89;;;16.51;47.30
50632;BME280;49583;45.590;-122.498;2023-06-14T06:19:08;101557.14;;;16.43;47.25
50632;BME280;49583;45.590;-122.498;2023-06-14T06:21:41;101561.91;;;16.38;47.30
50632;BME280;49583;45.590;-122.498;2023-06-14T06:24:05;101560.02;;;16.32;47.37
50632;BME280;49583;45.590;-122.498;2023-06-14T06:26:21;101563.26;;;16.27;47.52
50632;BME280;49583;45.590;-122.498;2023-06-14T06:28:38;101561.23;;;16.22;47.67
50632;BME280;49583;45.590;-122.498;2023-06-14T06:31:10;101558.52;;;16.18;47.79
50632;BME280;49583;45.590;-122.498;2023-06-14T06:33:32;101557.44;;;16.13;47.88
50632;BME280;49583;45.590;-122.498;2023-06-14T06:35:45;101556.27;;;16.10;47.91
50632;BME280;49583;45.590;-122.498;2023-06-14T06:38:02;101556.08;;;16.07;48.04
50632;BME280;49583;45.590;-122.498;2023-06-14T06:40:17;101555.36;;;16.01;48.02
50632;BME280;49583;45.590;-122.498;2023-06-14T06:42:31;101559.59;;;15.98;48.22
50632;BME280;49583;45.590;-122.498;2023-06-14T06:45:05;101558.41;;;15.92;48.19
50632;BME280;49583;45.590;-122.498;2023-06-14T06:47:28;101557.39;;;15.86;48.27
50632;BME280;49583;45.590;-122.498;2023-06-14T06:50:01;101564.80;;;15.80;48.46
50632;BME280;49583;45.590;-122.498;2023-06-14T06:52:14;101564.02;;;15.76;48.52
50632;BME280;49583;45.590;-122.498;2023-06-14T06:54:27;101569.72;;;15.72;48.60
50632;BME280;49583;45.590;-122.498;2023-06-14T06:56:51;101573.47;;;15.69;48.69
50632;BME280;49583;45.590;-122.498;2023-06-14T06:59:06;101577.89;;;15.64;48.62
50632;BME280;49583;45.590;-122.498;2023-06-14T07:01:19;101577.48;;;15.63;48.64
50632;BME280;49583;45.590;-122.498;2023-06-14T07:03:32;101573.80;;;15.60;48.69
50632;BME280;49583;45.590;-122.498;2023-06-14T07:05:45;101570.92;;;15.58;48.94
50632;BME280;49583;45.590;-122.498;2023-06-14T07:08:11;101573.81;;;15.55;48.95
50632;BME280;49583;45.590;-122.498;2023-06-14T07:10:33;101577.24;;;15.50;49.09
50632;BME280;49583;45.590;-122.498;2023-06-14T07:13:00;101578.96;;;15.49;49.04
50632;BME280;49583;45.590;-122.498;2023-06-14T07:15:13;101580.58;;;15.46;49.11
50632;BME280;49583;45.590;-122.498;2023-06-14T07:17:29;101584.52;;;15.45;49.44
50632;BME280;49583;45.590;-122.498;2023-06-14T07:19:42;101582.14;;;15.45;49.35
50632;BME280;49583;45.590;-122.498;2023-06-14T07:22:07;101581.66;;;15.45;49.38
50632;BME280;49583;45.590;-122.498;2023-06-14T07:24:32;101582.27;;;15.47;49.65
50632;BME280;49583;45.590;-122.498;2023-06-14T07:26:59;101582.19;;;15.48;49.63
50632;BME280;49583;45.590;-122.498;2023-06-14T07:29:18;101585.21;;;15.50;49.59
50632;BME280;49583;45.590;-122.498;2023-06-14T07:31:32;101585.85;;;15.51;49.66
50632;BME280;49583;45.590;-122.498;2023-06-14T07:33:55;101584.98;;;15.54;49.71
50632;BME280;49583;45.590;-122.498;2023-06-14T07:36:22;101588.20;;;15.53;49.71
50632;BME280;49583;45.590;-122.498;2023-06-14T07:38:41;101588.02;;;15.55;49.72
50632;BME280;49583;45.590;-122.498;2023-06-14T07:41:14;101590.30;;;15.55;49.58
50632;BME280;49583;45.590;-122.498;2023-06-14T07:43:30;101586.27;;;15.55;49.74
50632;BME280;49583;45.590;-122.498;2023-06-14T07:45:43;101588.68;;;15.53;49.71
50632;BME280;49583;45.590;-122.498;2023-06-14T07:48:13;101588.56;;;15.52;49.64
50632;BME280;49583;45.590;-122.498;2023-06-14T07:50:46;101584.55;;;15.48;49.40
50632;BME280;49583;45.590;-122.498;2023-06-14T07:52:59;101591.84;;;15.45;49.27
50632;BME280;49583;45.590;-122.498;2023-06-14T07:55:16;101597.80;;;15.43;49.14
50632;BME280;49583;45.590;-122.498;2023-06-14T07:57:40;101596.82;;;15.41;49.12
50632;BME280;49583;45.590;-122.498;2023-06-14T08:00:14;101600.34;;;15.38;48.90
50632;BME280;49583;45.590;-122.498;2023-06-14T08:02:48;101601.79;;;15.36;48.76
50632;BME280;49583;45.590;-122.498;2023-06-14T08:05:18;101600.56;;;15.34;48.74
50632;BME280;49583;45.590;-122.498;2023-06-14T08:07:51;101598.67;;;15.32;48.75
50632;BME280;49583;45.590;-122.498;2023-06-14T08:10:10;101599.40;;;15.29;48.58
50632;BME280;49583;45.590;-122.498;2023-06-14T08:12:44;101596.63;;;15.25;48.41
50632;BME280;49583;45.590;-122.498;2023-06-14T08:14:57;101598.33;;;15.22;48.38
50632;BME280;49583;45.590;-122.498;2023-06-14T08:17:27;101594.72;;;15.19;48.46
50632;BME280;49583;45.590;-122.498;2023-06-14T08:19:51;101589.02;;;15.13;48.22
50632;BME280;49583;45.590;-122.498;2023-06-14T08:22:25;101590.60;;;15.08;48.21
50632;BME280;49583;45.590;-122.498;2023-06-14T08:24:51;101589.80;;;15.08;48.20
50632;BME280;49583;45.590;-122.498;2023-06-14T08:27:09;101586.56;;;15.04;48.09
50632;BME280;49583;45.590;-122.498;2023-06-14T08:29:35;101585.67;;;15.01;47.86
50632;BME280;49583;45.590;-122.498;2023-06-14T08:32:09;101581.38;;;14.95;47.70
50632;BME280;49583;45.590;-122.498;2023-06-14T08:34:42;101583.16;;;14.90;47.63
50632;BME280;49583;45.590;-122.498;2023-06-14T08:37:31;101585.75;;;14.81;47.37
50632;BME280;49583;45.590;-122.498;2023-06-14T08:39:55;101586.02;;;14.78;47.26
50632;BME280;49583;45.590;-122.498;2023-06-14T08:42:28;101591.38;;;14.74;47.55
50632;BME280;49583;45.590;-122.498;2023-06-14T08:44:51;101593.38;;;14.71;47.34
50632;BME280;49583;45.590;-122.498;2023-06-14T08:47:05;101595.04;;;14.71;47.48
50632;BME280;49583;45.590;-122.498;2023-06-14T08:49:29;101600.38;;;14.71;47.39
50632;BME280;49583;45.590;-122.498;2023-06-14T08:52:08;101600.46;;;14.71;47.43
50632;BME280;49583;45.590;-122.498;2023-06-14T08:54:23;101594.06;;;14.70;47.56
50632;BME280;49583;45.590;-122.498;2023-06-14T08:56:58;101602.20;;;14.72;47.62
50632;BME280;49583;45.590;-122.498;2023-06-14T08:59:32;101605.04;;;14.71;47.64
50632;BME280;49583;45.590;-122.498;2023-06-14T09:02:09;101606.36;;;14.70;47.69
50632;BME280;49583;45.590;-122.498;2023-06-14T09:04:45;101607.55;;;14.70;47.81
50632;BME280;49583;45.590;-122.498;2023-06-14T09:07:16;101610.07;;;14.70;47.73
50632;BME280;49583;45.590;-122.498;2023-06-14T09:09:43;101610.23;;;14.70;48.00
50632;BME280;49583;45.590;-122.498;2023-06-14T09:12:35;101609.27;;;14.70;47.97
50632;BME280;49583;45.590;-122.498;2023-06-14T09:14:58;101611.02;;;14.70;48.04
50632;BME280;49583;45.590;-122.498;2023-06-14T09:17:36;101608.02;;;14.70;48.02
50632;BME280;49583;45.590;-122.498;2023-06-14T09:20:00;101610.63;;;14.70;48.27
50632;BME280;49583;45.590;-122.498;2023-06-14T09:22:25;101608.38;;;14.69;48.13
50632;BME280;49583;45.590;-122.498;2023-06-14T09:24:39;101605.34;;;14.67;48.25
50632;BME280;49583;45.590;-122.498;2023-06-14T09:27:06;101599.65;;;14.66;48.45
50632;BME280;49583;45.590;-122.498;2023-06-14T09:29:19;101598.93;;;14.65;48.29
50632;BME280;49583;45.590;-122.498;2023-06-14T09:31:51;101597.42;;;14.64;48.48
50632;BME280;49583;45.590;-122.498;2023-06-14T09:34:14;101594.17;;;14.63;48.77
50632;BME280;49583;45.590;-122.498;2023-06-14T09:36:42;101599.41;;;14.61;48.52
50632;BME280;49583;45.590;-122.498;2023-06-14T09:39:19;101609.25;;;14.60;48.50
50632;BME280;49583;45.590;-122.498;2023-06-14T09:41:37;101609.98;;;14.61;48.68
50632;BME280;49583;45.590;-122.498;2023-06-14T09:44:01;101618.88;;;14.61;48.51
50632;BME280;49583;45.590;-122.498;2023-06-14T09:46:34;101617.92;;;14.61;48.40
50632;BME280;49583;45.590;-122.498;2023-06-14T09:48:58;101616.67;;;14.62;48.55
50632;BME280;49583;45.590;-122.498;2023-06-14T09:51:32;101619.11;;;14.61;48.79
50632;BME280;49583;45.590;-122.498;2023-06-14T09:53:46;101614.14;;;14.58;48.65
50632;BME280;49583;45.590;-122.498;2023-06-14T09:56:23;101618.09;;;14.58;48.91
50632;BME280;49583;45.590;-122.498;2023-06-14T09:59:00;101622.39;;;14.57;48.95
50632;BME280;49583;45.590;-122.498;2023-06-14T10:02:02;101623.46;;;14.55;48.86
50632;BME280;49583;45.590;-122.498;2023-06-14T10:04:20;101622.91;;;14.51;49.06
50632;BME280;49583;45.590;-122.498;2023-06-14T10:06:35;101622.55;;;14.49;49.13
50632;BME280;49583;45.590;-122.498;2023-06-14T10:08:50;101623.54;;;14.47;48.99
50632;BME280;49583;45.590;-122.498;2023-06-14T10:11:05;101625.18;;;14.43;49.05
50632;BME280;49583;45.590;-122.498;2023-06-14T10:13:18;101631.58;;;14.41;49.27
50632;BME280;49583;45.590;-122.498;2023-06-14T10:15:37;101631.98;;;14.40;49.15
50632;BME280;49583;45.590;-122.498;2023-06-14T10:17:53;101631.58;;;14.39;49.29
50632;BME280;49583;45.590;-122.498;2023-06-14T10:20:19;101633.15;;;14.39;49.43
50632;BME280;49583;45.590;-122.498;2023-06-14T10:22:39;101636.88;;;14.38;49.37
50632;BME280;49583;45.590;-122.498;2023-06-14T10:24:55;101638.24;;;14.37;49.35
50632;BME280;49583;45.590;-122.498;2023-06-14T10:27:09;101639.86;;;14.35;49.26
50632;BME280;49583;45.590;-122.498;2023-06-14T10:29:22;101637.48;;;14.34;49.27
50632;BME280;49583;45.590;-122.498;2023-06-14T10:31:47;101639.71;;;14.32;49.43
50632;BME280;49583;45.590;-122.498;2023-06-14T10:34:00;101643.27;;;14.33;49.45
50632;BME280;49583;45.590;-122.498;2023-06-14T10:36:29;101637.22;;;14.32;49.42
50632;BME280;49583;45.590;-122.498;2023-06-14T10:38:44;101634.85;;;14.32;49.37
50632;BME280;49583;45.590;-122.498;2023-06-14T10:40:57;101636.55;;;14.31;49.20
50632;BME280;49583;45.590;-122.498;2023-06-14T10:43:23;101633.98;;;14.28;48.92
50632;BME280;49583;45.590;-122.498;2023-06-14T10:45:36;101632.21;;;14.27;49.01
50632;BME280;49583;45.590;-122.498;2023-06-14T10:47:51;101624.72;;;14.26;49.07
50632;BME280;49583;45.590;-122.498;2023-06-14T10:50:08;101623.52;;;14.25;48.87
50632;BME280;49583;45.590;-122.498;2023-06-14T10:52:29;101629.27;;;14.25;48.63
50632;BME280;49583;45.590;-122.498;2023-06-14T10:55:04;101624.58;;;14.23;48.66
50632;BME280;49583;45.590;-122.498;2023-06-14T10:57:19;101625.09;;;14.21;48.46
50632;BME280;49583;45.590;-122.498;2023-06-14T10:59:31;101628.90;;;14.19;48.29
50632;BME280;49583;45.590;-122.498;2023-06-14T11:01:57;101627.86;;;14.18;48.28
50632;BME280;49583;45.590;-122.498;2023-06-14T11:04:14;101632.02;;;14.18;48.30
50632;BME280;49583;45.590;-122.498;2023-06-14T11:06:34;101636.35;;;14.18;48.41
50632;BME280;49583;45.590;-122.498;2023-06-14T11:11:39;101638.92;;;14.16;48.23
50632;BME280;49583;45.590;-122.498;2023-06-14T11:13:54;101638.44;;;14.16;48.37
50632;BME280;49583;45.590;-122.498;2023-06-14T11:16:15;101637.64;;;14.15;48.18
50632;BME280;49583;45.590;-122.498;2023-06-14T11:18:30;101634.72;;;14.15;48.62
50632;BME280;49583;45.590;-122.498;2023-06-14T11:20:45;101635.38;;;14.16;48.44
50632;BME280;49583;45.590;-122.498;2023-06-14T11:22:58;101630.35;;;14.16;48.62
50632;BME280;49583;45.590;-122.498;2023-06-14T11:25:13;101626.00;;;14.15;48.45
50632;BME280;49583;45.590;-122.498;2023-06-14T11:27:29;101632.48;;;14.14;48.55
50632;BME280;49583;45.590;-122.498;2023-06-14T11:29:52;101630.19;;;14.13;48.59
50632;BME280;49583;45.590;-122.498;2023-06-14T11:32:09;101630.84;;;14.13;48.53
50632;BME280;49583;45.590;-122.498;2023-06-14T11:34:24;101631.11;;;14.12;48.54
50632;BME280;49583;45.590;-122.498;2023-06-14T11:36:37;101632.75;;;14.12;48.41
50632;BME280;49583;45.590;-122.498;2023-06-14T11:38:50;101637.46;;;14.11;48.51
50632;BME280;49583;45.590;-122.498;2023-06-14T11:41:10;101637.41;;;14.09;48.45
50632;BME280;49583;45.590;-122.498;2023-06-14T11:43:23;101640.79;;;14.08;48.45
50632;BME280;49583;45.590;-122.498;2023-06-14T11:45:37;101638.29;;;14.05;48.58
50632;BME280;49583;45.590;-122.498;2023-06-14T11:47:50;101640.91;;;14.07;48.45
50632;BME280;49583;45.590;-122.498;2023-06-14T11:50:03;101635.24;;;14.07;48.47
50632;BME280;49583;45.590;-122.498;2023-06-14T11:52:16;101639.66;;;14.07;48.57
50632;BME280;49583;45.590;-122.498;2023-06-14T11:54:28;101639.19;;;14.07;48.68
50632;BME280;49583;45.590;-122.498;2023-06-14T11:56:43;101640.92;;;14.07;48.76
50632;BME280;49583;45.590;-122.498;2023-06-14T11:58:56;101637.04;;;14.06;48.84
50632;BME280;49583;45.590;-122.498;2023-06-14T12:01:09;101634.27;;;14.05;48.73